Time;durP1;ratioP1;P1;durP2;ratioP2;P2;SDS_P1;SDS_P2;PMS_P1;PMS_P2;Temp;Humidity;BMP_temperature;BMP_pressure;BME280_temperature;BME280_humidity;BME280_pressure;Samples;Min_cycle;Max_cycle;Signal;HPM_P1;HPM_P2
2022/10/16 00:01:51;;;;;;;8.70;1.75;;;12.40;99.90;;;;;;5069957;28;20086;-70
2022/10/16 00:04:17;;;;;;;10.85;1.70;;;12.40;99.90;;;;;;5070338;28;20047;-70
2022/10/16 00:06:43;;;;;;;11.65;2.00;;;12.40;99.90;;;;;;5070870;28;20040;-70
2022/10/16 00:09:09;;;;;;;9.60;2.00;;;12.40;99.90;;;;;;5068730;28;20444;-70
2022/10/16 00:11:36;;;;;;;5.90;1.27;;;12.40;99.90;;;;;;5070165;28;20390;-70
2022/10/16 00:14:04;;;;;;;8.10;2.15;;;12.40;99.90;;;;;;5052535;28;20118;-70
2022/10/16 00:16:30;;;;;;;11.10;1.70;;;12.40;99.90;;;;;;5069125;28;20040;-70
2022/10/16 00:18:56;;;;;;;9.38;1.85;;;12.40;99.90;;;;;;5069662;28;20055;-70
2022/10/16 00:21:24;;;;;;;9.88;2.10;;;12.40;99.90;;;;;;5051148;28;20127;-71
2022/10/16 00:23:55;;;;;;;7.32;1.60;;;12.40;99.90;;;;;;5070273;28;20060;-70
2022/10/16 00:26:21;;;;;;;6.07;1.50;;;12.40;99.90;;;;;;5068433;28;20105;-70
2022/10/16 00:28:48;;;;;;;8.50;1.65;;;12.40;99.90;;;;;;5069110;28;20056;-70
2022/10/16 00:31:15;;;;;;;9.18;1.70;;;12.40;99.90;;;;;;5068544;28;20101;-68
2022/10/16 00:33:42;;;;;;;11.93;2.17;;;12.40;99.90;;;;;;5060891;28;20086;-68
2022/10/16 00:36:10;;;;;;;11.02;1.70;;;12.40;99.90;;;;;;5061941;28;20059;-69
2022/10/16 00:38:37;;;;;;;7.20;1.80;;;12.40;99.90;;;;;;5061902;28;20497;-69
2022/10/16 00:41:03;;;;;;;10.00;1.85;;;12.40;99.90;;;;;;5070144;28;20090;-69
2022/10/16 00:43:44;;;;;;;10.00;2.25;;;12.40;99.90;;;;;;5067299;28;20055;-70
2022/10/16 00:46:27;;;;;;;9.65;1.67;;;12.40;99.90;;;;;;5067510;28;20560;-70
2022/10/16 00:49:10;;;;;;;6.50;1.40;;;12.40;99.90;;;;;;5064548;28;20405;-69
2022/10/16 00:51:51;;;;;;;12.50;2.03;;;12.40;99.90;;;;;;5045171;28;20054;-69
2022/10/16 00:54:21;;;;;;;6.20;1.65;;;12.40;99.90;;;;;;5064365;28;20075;-70
2022/10/16 00:56:47;;;;;;;5.00;1.23;;;12.40;99.90;;;;;;5057939;28;20514;-69
2022/10/16 00:59:22;;;;;;;8.55;1.50;;;12.40;99.90;;;;;;5063426;28;20040;-69
2022/10/16 01:01:48;;;;;;;6.78;1.45;;;12.40;99.90;;;;;;5061002;28;20057;-69
2022/10/16 01:04:14;;;;;;;5.63;1.77;;;12.40;99.90;;;;;;5059574;28;20045;-69
2022/10/16 01:06:46;;;;;;;6.38;1.50;;;12.40;99.90;;;;;;5062374;28;20123;-69
2022/10/16 01:09:16;;;;;;;8.80;1.55;;;12.40;99.90;;;;;;5058493;28;20047;-70
2022/10/16 01:12:13;;;;;;;6.10;1.63;;;12.40;99.90;;;;;;5063806;28;20044;-69
2022/10/16 01:15:00;;;;;;;6.15;1.60;;;12.40;99.90;;;;;;5066481;28;20063;-69
2022/10/16 01:17:39;;;;;;;9.98;1.45;;;12.40;99.90;;;;;;5066133;28;20056;-69
2022/10/16 01:20:11;;;;;;;7.97;1.40;;;12.40;99.90;;;;;;5068003;28;20521;-70
2022/10/16 01:22:54;;;;;;;6.50;1.52;;;12.40;99.90;;;;;;5051123;28;20602;-70
2022/10/16 01:25:31;;;;;;;6.80;1.45;;;12.40;99.90;;;;;;5031461;28;20187;-69
2022/10/16 01:27:59;;;;;;;5.63;1.85;;;12.40;99.90;;;;;;5066260;28;20060;-70
2022/10/16 01:30:31;;;;;;;7.70;1.52;;;12.50;99.90;;;;;;5061671;28;20049;-69
2022/10/16 01:33:04;;;;;;;10.85;1.73;;;12.40;99.90;;;;;;5053065;28;20105;-70
2022/10/16 01:35:37;;;;;;;8.63;1.55;;;12.50;99.90;;;;;;5064791;28;20045;-69
2022/10/16 01:38:30;;;;;;;9.57;1.60;;;12.50;99.90;;;;;;5082475;28;20154;-69
2022/10/16 01:41:12;;;;;;;6.45;1.52;;;12.50;99.90;;;;;;5048287;28;20048;-69
2022/10/16 01:43:43;;;;;;;7.20;1.55;;;12.50;99.90;;;;;;5048949;28;20060;-69
2022/10/16 01:46:10;;;;;;;8.93;1.83;;;12.50;99.90;;;;;;5054745;28;20064;-69
2022/10/16 01:48:37;;;;;;;10.15;1.63;;;12.50;99.90;;;;;;5081936;28;20463;-69
2022/10/16 01:51:09;;;;;;;6.53;1.52;;;12.50;99.90;;;;;;5067283;28;20703;-70
2022/10/16 01:53:34;;;;;;;;;;;12.50;99.90;;;;;;5067364;28;20080;-69
2022/10/16 01:56:03;;;;;;;10.63;2.08;;;12.50;99.90;;;;;;5066341;28;20424;-69
2022/10/16 01:58:34;;;;;;;7.13;1.52;;;12.60;99.90;;;;;;5067083;28;20048;-69
2022/10/16 02:01:02;;;;;;;7.50;1.70;;;12.60;99.90;;;;;;5068394;28;20056;-70
2022/10/16 02:03:28;;;;;;;10.23;1.85;;;12.60;99.90;;;;;;5065454;28;20627;-69
2022/10/16 02:05:57;;;;;;;7.40;1.58;;;12.60;99.90;;;;;;5050782;28;20060;-70
2022/10/16 02:08:27;;;;;;;9.60;1.98;;;12.60;99.90;;;;;;5066268;28;20493;-70
2022/10/16 02:10:55;;;;;;;5.80;1.45;;;12.60;99.90;;;;;;5067531;28;20045;-69
2022/10/16 02:13:33;;;;;;;7.50;2.00;;;12.60;99.90;;;;;;5067295;28;20413;-70
2022/10/16 02:15:59;;;;;;;8.38;1.80;;;12.60;99.90;;;;;;5067908;28;20049;-69
2022/10/16 02:18:29;;;;;;;9.18;2.17;;;12.60;99.90;;;;;;5065518;28;20056;-69
2022/10/16 02:21:08;;;;;;;6.45;1.60;;;12.60;99.90;;;;;;5054551;28;20086;-69
2022/10/16 02:23:47;;;;;;;6.93;1.67;;;12.70;99.90;;;;;;5045956;28;20041;-70
2022/10/16 02:26:19;;;;;;;7.00;1.58;;;12.70;99.90;;;;;;5080125;28;20076;-70
2022/10/16 02:28:54;;;;;;;8.23;1.85;;;12.70;99.90;;;;;;5058090;28;20425;-70
2022/10/16 02:31:27;;;;;;;5.70;1.65;;;12.70;99.90;;;;;;5057956;28;20055;-69
2022/10/16 02:33:54;;;;;;;7.75;1.52;;;12.70;99.90;;;;;;5059335;28;20118;-70
2022/10/16 02:36:21;;;;;;;6.88;1.73;;;12.70;99.90;;;;;;5060756;28;20032;-70
2022/10/16 02:38:47;;;;;;;7.30;1.67;;;12.70;99.90;;;;;;5065386;28;20056;-70
2022/10/16 02:41:14;;;;;;;9.23;1.80;;;12.70;99.90;;;;;;5061028;28;20076;-69
2022/10/16 02:43:39;;;;;;;9.05;1.63;;;12.70;99.90;;;;;;5064243;28;20048;-70
2022/10/16 02:46:05;;;;;;;4.28;1.40;;;12.70;99.90;;;;;;5055369;28;20052;-70
2022/10/16 02:48:31;;;;;;;7.28;1.58;;;12.70;99.90;;;;;;5056775;28;20048;-70
2022/10/16 02:50:57;;;;;;;9.30;1.63;;;12.70;99.90;;;;;;5048686;28;20052;-70
2022/10/16 02:53:23;;;;;;;6.32;1.50;;;12.70;99.90;;;;;;5067179;28;20076;-69
2022/10/16 02:55:49;;;;;;;6.68;1.73;;;12.60;99.90;;;;;;5067801;28;20041;-69
2022/10/16 02:58:14;;;;;;;10.82;1.70;;;12.60;99.90;;;;;;5066266;28;20049;-70
2022/10/16 03:00:40;;;;;;;6.75;1.60;;;12.60;99.90;;;;;;5065397;28;20052;-69
2022/10/16 03:03:06;;;;;;;5.90;1.65;;;12.60;99.90;;;;;;5066351;28;20513;-69
2022/10/16 03:05:31;;;;;;;5.35;1.40;;;12.60;99.90;;;;;;5066171;28;20038;-69
2022/10/16 03:07:59;;;;;;;8.18;1.85;;;12.60;99.90;;;;;;5066010;28;20071;-69
2022/10/16 03:10:25;;;;;;;5.88;1.60;;;12.80;99.90;;;;;;5048900;28;20044;-69
2022/10/16 03:12:51;;;;;;;9.57;1.60;;;12.60;99.90;;;;;;5065895;28;20566;-70
2022/10/16 03:15:16;;;;;;;9.40;1.70;;;12.60;99.90;;;;;;5067073;28;20440;-70
2022/10/16 03:17:43;;;;;;;8.20;1.95;;;12.60;99.90;;;;;;5067572;28;20045;-70
2022/10/16 03:20:09;;;;;;;5.55;1.50;;;12.60;99.90;;;;;;5066829;28;20110;-69
2022/10/16 03:22:34;;;;;;;7.53;1.77;;;12.60;99.90;;;;;;5067983;28;20041;-69
2022/10/16 03:25:00;;;;;;;5.38;1.55;;;12.70;99.90;;;;;;5068805;28;20135;-69
2022/10/16 03:27:26;;;;;;;6.03;1.67;;;12.60;99.90;;;;;;5049447;28;20052;-69
2022/10/16 03:29:52;;;;;;;6.97;1.20;;;12.70;99.90;;;;;;5067487;28;20048;-70
2022/10/16 03:32:18;;;;;;;5.40;1.35;;;12.60;99.90;;;;;;5050089;28;20037;-69
2022/10/16 03:34:44;;;;;;;5.93;1.33;;;12.60;99.90;;;;;;5068435;28;20108;-69
2022/10/16 03:37:10;;;;;;;4.50;1.40;;;12.60;99.90;;;;;;5066999;28;20068;-70
2022/10/16 03:39:35;;;;;;;5.82;2.20;;;12.60;99.90;;;;;;5066954;28;20044;-69
2022/10/16 03:42:01;;;;;;;6.43;1.60;;;12.60;99.90;;;;;;5066970;28;20083;-69
2022/10/16 03:44:27;;;;;;;7.85;1.77;;;12.60;99.90;;;;;;5067259;28;20375;-69
2022/10/16 03:46:52;;;;;;;5.55;1.60;;;12.60;99.90;;;;;;5067439;28;20037;-69
2022/10/16 03:49:21;;;;;;;6.05;1.50;;;12.60;99.90;;;;;;5058829;28;20044;-69
2022/10/16 03:51:47;;;;;;;4.65;1.40;;;12.60;99.90;;;;;;5063415;28;20567;-69
2022/10/16 03:54:12;;;;;;;6.57;1.50;;;12.60;99.90;;;;;;5055464;28;20041;-69
2022/10/16 03:56:38;;;;;;;7.68;1.50;;;12.60;99.90;;;;;;5067291;28;20323;-69
2022/10/16 03:59:04;;;;;;;6.90;1.98;;;12.60;99.90;;;;;;5071266;28;20498;-70
2022/10/16 04:01:30;;;;;;;7.28;1.98;;;12.60;99.90;;;;;;5069459;28;20036;-70
2022/10/16 04:03:56;;;;;;;4.43;1.80;;;12.60;99.90;;;;;;5066509;28;20112;-70
2022/10/16 04:06:21;;;;;;;5.97;1.73;;;12.60;99.90;;;;;;5066349;28;20094;-70
2022/10/16 04:08:47;;;;;;;4.32;1.30;;;12.60;99.90;;;;;;5069445;28;20048;-70
2022/10/16 04:11:13;;;;;;;3.60;1.38;;;12.60;99.90;;;;;;5070485;28;20044;-70
2022/10/16 04:13:38;;;;;;;4.53;1.60;;;12.60;99.90;;;;;;5070169;28;20047;-70
2022/10/16 04:16:04;;;;;;;4.95;1.50;;;12.60;99.90;;;;;;5068581;28;20469;-70
2022/10/16 04:18:30;;;;;;;7.97;1.70;;;12.50;99.90;;;;;;5057842;28;20166;-70
2022/10/16 04:20:56;;;;;;;4.65;1.65;;;12.50;99.90;;;;;;5052843;28;20041;-69
2022/10/16 04:23:22;;;;;;;5.45;1.70;;;12.50;99.90;;;;;;5068594;28;20094;-69
2022/10/16 04:25:49;;;;;;;7.78;1.80;;;12.50;99.90;;;;;;5052722;28;20051;-70
2022/10/16 04:28:15;;;;;;;4.80;1.50;;;12.50;99.90;;;;;;5070650;28;20513;-69
2022/10/16 04:30:40;;;;;;;6.40;1.80;;;12.50;99.90;;;;;;5053799;28;20123;-69
2022/10/16 04:33:08;;;;;;;4.22;1.58;;;12.50;99.90;;;;;;5082729;28;20141;-69
2022/10/16 04:35:33;;;;;;;10.75;1.90;;;12.50;99.90;;;;;;5048789;28;20057;-69
2022/10/16 04:37:59;;;;;;;7.10;1.63;;;12.50;99.90;;;;;;5049942;28;20179;-69
2022/10/16 04:40:24;;;;;;;6.72;1.75;;;12.50;99.90;;;;;;5057493;28;20048;-69
2022/10/16 04:42:50;;;;;;;5.82;1.50;;;12.50;99.90;;;;;;5070100;28;20032;-69
2022/10/16 04:45:16;;;;;;;8.25;1.90;;;12.60;99.90;;;;;;5069216;28;20086;-69
2022/10/16 04:47:41;;;;;;;4.60;1.63;;;12.40;99.90;;;;;;5068578;28;20049;-69
2022/10/16 04:50:08;;;;;;;6.30;2.10;;;12.50;99.90;;;;;;5069205;28;20508;-69
2022/10/16 04:52:33;;;;;;;8.02;1.92;;;12.50;99.90;;;;;;5066721;28;20037;-70
2022/10/16 04:55:01;;;;;;;6.05;1.80;;;12.50;99.90;;;;;;5069621;28;20424;-70
2022/10/16 04:57:28;;;;;;;8.27;1.70;;;12.50;99.90;;;;;;5066847;28;20810;-70
2022/10/16 04:59:54;;;;;;;10.23;2.08;;;12.60;99.90;;;;;;5068959;28;20051;-69
2022/10/16 05:02:19;;;;;;;12.85;1.75;;;12.60;99.90;;;;;;5068506;28;20063;-69
2022/10/16 05:04:45;;;;;;;7.15;1.73;;;12.60;99.90;;;;;;5067353;28;20048;-69
2022/10/16 05:07:11;;;;;;;5.63;2.00;;;12.60;99.90;;;;;;5069435;28;20409;-69
2022/10/16 05:09:37;;;;;;;8.70;1.80;;;12.60;99.90;;;;;;5069028;28;20048;-69
2022/10/16 05:12:03;;;;;;;6.50;1.88;;;12.60;99.90;;;;;;5067298;28;20035;-69
2022/10/16 05:14:29;;;;;;;7.20;2.22;;;12.60;99.90;;;;;;5067698;28;20046;-69
2022/10/16 05:16:55;;;;;;;7.50;2.10;;;12.60;99.90;;;;;;5068179;28;20060;-69
2022/10/16 05:19:20;;;;;;;7.68;1.90;;;12.60;99.90;;;;;;5069192;28;20048;-69
2022/10/16 05:21:46;;;;;;;9.68;1.90;;;12.60;99.90;;;;;;5067417;28;20455;-69
2022/10/16 05:24:12;;;;;;;6.47;1.92;;;12.60;99.90;;;;;;5069752;28;20507;-69
2022/10/16 05:26:38;;;;;;;6.82;1.80;;;12.70;99.90;;;;;;5066609;28;20409;-69
2022/10/16 05:29:04;;;;;;;8.05;2.08;;;12.60;99.90;;;;;;5067108;28;20090;-69
2022/10/16 05:31:29;;;;;;;7.57;2.88;;;12.60;99.90;;;;;;5068353;28;20037;-70
2022/10/16 05:33:59;;;;;;;8.73;2.78;;;12.60;99.90;;;;;;5051923;28;20106;-69
2022/10/16 05:36:25;;;;;;;6.00;2.47;;;12.60;99.90;;;;;;5069606;28;20052;-70
2022/10/16 05:38:52;;;;;;;7.05;2.28;;;12.70;99.90;;;;;;5069703;28;20041;-69
2022/10/16 05:41:21;;;;;;;8.43;2.65;;;12.60;99.90;;;;;;5068436;28;20060;-69
2022/10/16 05:43:48;;;;;;;8.60;2.42;;;12.70;99.90;;;;;;5069996;28;20079;-69
2022/10/16 05:46:14;;;;;;;6.78;2.28;;;12.70;99.90;;;;;;5067497;28;20040;-70
2022/10/16 05:48:40;;;;;;;9.55;2.38;;;12.70;99.90;;;;;;5067457;28;20047;-70
2022/10/16 05:51:08;;;;;;;7.40;2.50;;;12.70;99.90;;;;;;5067821;28;20044;-70
2022/10/16 05:53:36;;;;;;;10.57;2.28;;;12.70;99.90;;;;;;5066375;28;20040;-71
2022/10/16 05:56:03;;;;;;;9.07;2.20;;;12.70;99.90;;;;;;5068631;28;20105;-70
2022/10/16 05:58:33;;;;;;;6.78;2.25;;;12.70;99.90;;;;;;5067038;28;20455;-70
2022/10/16 06:01:05;;;;;;;8.68;2.78;;;12.90;99.90;;;;;;5063919;28;20044;-70
2022/10/16 06:03:31;;;;;;;10.15;3.15;;;12.70;99.90;;;;;;5046433;28;20044;-70
2022/10/16 06:05:56;;;;;;;8.48;2.80;;;12.70;99.90;;;;;;5067742;28;20041;-70
2022/10/16 06:08:23;;;;;;;8.05;2.80;;;12.70;99.90;;;;;;5050217;28;20047;-70
2022/10/16 06:10:59;;;;;;;8.88;2.50;;;12.70;99.90;;;;;;5067300;28;20041;-70
2022/10/16 06:13:25;;;;;;;8.68;2.72;;;12.70;99.90;;;;;;5066536;28;20513;-70
2022/10/16 06:15:51;;;;;;;9.27;2.60;;;12.70;99.90;;;;;;5064164;28;20052;-70
2022/10/16 06:18:16;;;;;;;9.48;2.53;;;12.70;99.90;;;;;;5066849;28;20051;-69
2022/10/16 06:20:42;;;;;;;9.27;2.97;;;12.70;99.90;;;;;;5067851;28;20093;-69
2022/10/16 06:23:08;;;;;;;7.93;2.45;;;12.70;99.90;;;;;;5067693;28;20127;-69
2022/10/16 06:25:33;;;;;;;7.15;2.28;;;12.70;99.90;;;;;;5066661;28;20433;-70
2022/10/16 06:27:59;;;;;;;8.70;2.40;;;12.70;99.90;;;;;;5068713;28;20121;-70
2022/10/16 06:30:25;;;;;;;7.50;2.75;;;12.70;99.90;;;;;;5049137;28;20450;-69
2022/10/16 06:32:51;;;;;;;8.27;2.60;;;12.70;99.90;;;;;;5068366;28;20055;-69
2022/10/16 06:35:16;;;;;;;6.72;2.35;;;12.70;99.90;;;;;;5068423;28;20063;-70
2022/10/16 06:37:42;;;;;;;7.88;2.70;;;12.80;99.90;;;;;;5066923;28;20106;-70
2022/10/16 06:40:08;;;;;;;7.75;2.50;;;12.80;99.90;;;;;;5067890;28;20060;-69
2022/10/16 06:42:34;;;;;;;8.48;2.20;;;12.80;99.90;;;;;;5067536;28;20033;-70
2022/10/16 06:44:59;;;;;;;7.15;1.92;;;12.80;99.90;;;;;;5066339;28;20421;-70
2022/10/16 06:47:25;;;;;;;9.20;2.45;;;12.80;99.90;;;;;;5050039;28;20190;-70
2022/10/16 06:49:51;;;;;;;9.60;2.42;;;12.80;99.90;;;;;;5049569;28;20051;-70
2022/10/16 06:52:16;;;;;;;7.00;2.25;;;12.80;99.90;;;;;;5066966;28;20037;-70
2022/10/16 06:54:42;;;;;;;8.40;2.25;;;12.80;99.90;;;;;;5066105;28;20049;-69
2022/10/16 06:57:08;;;;;;;6.13;2.13;;;12.90;99.90;;;;;;5066244;28;20051;-69
2022/10/16 06:59:33;;;;;;;7.60;2.28;;;12.90;99.90;;;;;;5067375;28;20044;-70
2022/10/16 07:01:59;;;;;;;7.18;2.13;;;12.90;99.90;;;;;;5061684;28;20190;-69
2022/10/16 07:04:25;;;;;;;6.68;2.22;;;12.90;99.90;;;;;;5060583;28;20036;-70
2022/10/16 07:06:51;;;;;;;9.48;2.53;;;12.90;99.90;;;;;;5065886;28;20036;-70
2022/10/16 07:09:17;;;;;;;9.05;2.10;;;12.90;99.90;;;;;;5067081;28;20064;-70
2022/10/16 07:11:43;;;;;;;8.98;2.10;;;12.90;99.90;;;;;;5066808;28;20037;-70
2022/10/16 07:14:17;;;;;;;8.57;2.28;;;12.90;99.90;;;;;;5059854;28;20475;-70
2022/10/16 07:16:43;;;;;;;8.65;1.90;;;12.90;99.90;;;;;;5066321;28;20127;-69
2022/10/16 07:19:08;;;;;;;11.38;2.20;;;12.90;99.90;;;;;;5066157;28;20139;-69
2022/10/16 07:21:37;;;;;;;7.55;2.10;;;13.00;99.90;;;;;;5066331;28;20068;-70
2022/10/16 07:24:06;;;;;;;10.48;2.20;;;13.00;99.90;;;;;;5067373;28;20048;-69
2022/10/16 07:26:34;;;;;;;8.88;2.30;;;13.00;99.90;;;;;;5066127;28;20049;-70
2022/10/16 07:29:00;;;;;;;7.00;2.17;;;13.00;99.90;;;;;;5068411;28;20044;-70
2022/10/16 07:31:27;;;;;;;9.43;2.20;;;13.00;99.90;;;;;;5069675;28;20098;-69
2022/10/16 07:33:53;;;;;;;10.23;2.53;;;12.90;99.90;;;;;;5071516;28;20045;-69
2022/10/16 07:36:20;;;;;;;12.15;2.33;;;12.90;99.90;;;;;;5049963;28;20040;-69
2022/10/16 07:38:46;;;;;;;11.25;2.50;;;12.90;99.90;;;;;;5067061;28;20521;-69
2022/10/16 07:41:15;;;;;;;7.45;2.13;;;12.90;99.90;;;;;;5054262;28;20048;-70
2022/10/16 07:43:48;;;;;;;5.68;2.00;;;12.90;99.90;;;;;;5071908;28;20460;-70
2022/10/16 07:46:17;;;;;;;7.25;2.22;;;12.90;99.90;;;;;;5105420;28;20401;-70
2022/10/16 07:48:46;;;;;;;6.25;2.33;;;12.90;99.90;;;;;;5070982;28;20103;-70
2022/10/16 07:51:13;;;;;;;10.13;2.50;;;12.90;99.90;;;;;;5069874;28;20043;-70
2022/10/16 07:53:39;;;;;;;7.53;2.25;;;12.90;99.90;;;;;;5052461;28;20121;-70
2022/10/16 07:56:06;;;;;;;7.03;2.13;;;12.80;99.90;;;;;;5068152;28;20048;-70
2022/10/16 07:58:34;;;;;;;7.95;2.65;;;12.80;99.90;;;;;;5068917;28;20044;-70
2022/10/16 08:01:04;;;;;;;11.75;2.72;;;12.80;99.90;;;;;;5069195;28;20591;-69
2022/10/16 08:03:30;;;;;;;7.35;2.33;;;12.90;99.90;;;;;;5069599;28;20045;-69
2022/10/16 08:05:57;;;;;;;9.93;2.83;;;12.90;99.90;;;;;;5068972;28;20675;-70
2022/10/16 08:08:23;;;;;;;6.82;2.42;;;12.90;99.90;;;;;;5062545;28;20036;-70
2022/10/16 08:10:49;;;;;;;6.68;2.47;;;12.90;99.90;;;;;;5052593;28;20926;-70
2022/10/16 08:13:15;;;;;;;8.10;2.38;;;13.00;99.90;;;;;;5069689;28;20060;-70
2022/10/16 08:15:45;;;;;;;11.95;3.15;;;13.10;99.90;;;;;;5097268;28;20063;-70
2022/10/16 08:18:12;;;;;;;12.02;2.70;;;13.20;99.90;;;;;;5054231;28;20040;-70
2022/10/16 08:20:39;;;;;;;7.53;2.20;;;13.20;99.90;;;;;;5070281;28;20098;-69
2022/10/16 08:23:05;;;;;;;7.38;1.92;;;13.40;99.90;;;;;;5063004;28;20067;-69
2022/10/16 08:25:33;;;;;;;6.18;2.30;;;13.40;99.90;;;;;;5068965;28;20080;-70
2022/10/16 08:27:59;;;;;;;8.32;2.22;;;13.50;99.90;;;;;;5065263;28;20500;-69
2022/10/16 08:30:25;;;;;;;5.75;2.05;;;13.70;99.90;;;;;;5048840;28;20056;-69
2022/10/16 08:32:53;;;;;;;5.85;1.95;;;13.70;99.90;;;;;;5061856;28;20519;-69
2022/10/16 08:35:19;;;;;;;8.05;2.05;;;13.80;99.90;;;;;;5055070;28;20131;-70
2022/10/16 08:37:45;;;;;;;7.65;2.25;;;13.80;99.90;;;;;;5049657;28;20136;-70
2022/10/16 08:40:32;;;;;;;12.68;2.72;;;13.90;99.90;;;;;;5050431;28;20048;-70
2022/10/16 08:43:20;;;;;;;5.53;1.92;;;14.00;99.90;;;;;;5064128;28;20047;-70
2022/10/16 08:46:13;;;;;;;8.18;2.03;;;14.00;99.90;;;;;;5066384;28;20085;-70
2022/10/16 08:49:05;;;;;;;8.85;1.83;;;14.10;99.90;;;;;;5066146;28;20051;-70
2022/10/16 08:51:35;;;;;;;7.15;1.52;;;14.10;99.90;;;;;;5064239;28;20516;-70
2022/10/16 08:54:05;;;;;;;7.25;1.30;;;14.10;99.90;;;;;;5064244;28;20041;-69
2022/10/16 08:56:32;;;;;;;8.68;1.80;;;14.20;99.90;;;;;;5064871;28;20559;-70
2022/10/16 08:58:59;;;;;;;11.50;1.60;;;14.30;99.90;;;;;;5066872;28;20758;-70
2022/10/16 09:01:44;;;;;;;9.48;2.15;;;14.30;99.90;;;;;;5067532;28;20127;-70
2022/10/16 09:04:42;;;;;;;8.25;1.63;;;14.40;99.90;;;;;;5050468;28;20083;-70
2022/10/16 09:07:18;;;;;;;7.10;1.40;;;14.50;99.90;;;;;;5069137;28;20064;-70
2022/10/16 09:10:16;;;;;;;11.65;2.03;;;14.50;99.90;;;;;;5066291;28;20041;-70
2022/10/16 09:12:45;;;;;;;6.97;1.80;;;14.50;99.90;;;;;;5088070;28;20055;-70
2022/10/16 09:15:24;;;;;;;8.30;1.52;;;14.50;99.90;;;;;;5067677;28;20566;-70
2022/10/16 09:17:59;;;;;;;9.40;1.80;;;14.50;99.90;;;;;;5066339;28;20492;-70
2022/10/16 09:20:49;;;;;;;8.10;1.42;;;14.50;99.90;;;;;;5048447;28;20110;-70
2022/10/16 09:23:24;;;;;;;7.65;1.50;;;14.50;99.90;;;;;;5064298;28;20714;-70
2022/10/16 09:25:50;;;;;;;8.18;1.70;;;14.60;99.90;;;;;;5093197;28;20064;-71
2022/10/16 09:28:18;;;;;;;11.80;1.52;;;14.70;99.90;;;;;;5069895;28;20044;-71
2022/10/16 09:30:45;;;;;;;13.00;1.95;;;14.70;99.90;;;;;;5056788;28;20183;-71
2022/10/16 09:33:12;;;;;;;10.88;2.60;;;14.70;99.90;;;;;;5061027;28;20048;-70
2022/10/16 09:35:39;;;;;;;11.82;1.58;;;14.80;99.90;;;;;;5053936;28;20041;-71
2022/10/16 09:38:06;;;;;;;9.38;1.90;;;14.80;99.90;;;;;;5041773;28;20182;-71
2022/10/16 09:40:35;;;;;;;11.77;2.05;;;14.70;99.90;;;;;;5057139;28;20041;-71
2022/10/16 09:43:28;;;;;;;11.88;1.98;;;14.80;99.90;;;;;;5055970;28;20036;-70
2022/10/16 09:45:56;;;;;;;11.75;1.90;;;14.80;99.90;;;;;;5057045;28;20715;-70
2022/10/16 09:48:23;;;;;;;14.85;2.03;;;14.80;99.90;;;;;;5054045;28;20045;-71
2022/10/16 09:50:57;;;;;;;12.93;2.25;;;14.80;99.90;;;;;;5053433;28;20056;-70
2022/10/16 09:53:23;;;;;;;11.15;2.03;;;14.80;99.90;;;;;;5061433;28;20116;-71
2022/10/16 09:55:53;;;;;;;17.23;3.28;;;14.80;99.90;;;;;;5058983;28;20609;-71
2022/10/16 09:58:23;;;;;;;18.50;2.63;;;14.90;99.90;;;;;;5056626;28;20040;-71
2022/10/16 10:00:52;;;;;;;8.63;1.80;;;15.00;99.90;;;;;;5055465;28;20128;-72
2022/10/16 10:03:45;;;;;;;11.60;2.30;;;15.10;99.90;;;;;;5052727;28;20121;-71
2022/10/16 10:06:22;;;;;;;14.48;2.47;;;15.10;99.90;;;;;;5056347;28;20420;-70
2022/10/16 10:08:54;;;;;;;10.23;2.00;;;15.20;99.90;;;;;;5054861;28;20053;-70
2022/10/16 10:11:41;;;;;;;14.85;2.85;;;15.30;99.90;;;;;;5060192;28;20131;-71
2022/10/16 10:14:18;;;;;;;11.90;2.65;;;15.30;99.90;;;;;;5058729;28;20664;-71
2022/10/16 10:16:44;;;;;;;12.63;2.40;;;15.40;99.90;;;;;;5057480;28;20055;-71
2022/10/16 10:19:19;;;;;;;15.07;1.98;;;15.40;99.90;;;;;;5059811;28;20430;-71
2022/10/16 10:21:46;;;;;;;16.88;2.30;;;15.40;99.90;;;;;;5059024;28;20603;-71
2022/10/16 10:24:14;;;;;;;14.30;2.10;;;15.50;99.90;;;;;;5058285;28;20072;-71
2022/10/16 10:27:04;;;;;;;11.93;1.95;;;15.50;99.90;;;;;;5071789;28;20048;-71
2022/10/16 10:29:59;;;;;;;12.98;2.25;;;15.50;99.90;;;;;;5045202;28;20406;-70
2022/10/16 10:32:38;;;;;;;16.75;2.28;;;15.50;99.90;;;;;;5074688;28;20115;-71
2022/10/16 10:35:14;;;;;;;14.68;2.42;;;15.50;99.90;;;;;;5046669;28;20044;-71
2022/10/16 10:38:14;;;;;;;13.85;2.13;;;15.50;99.90;;;;;;5059562;28;20090;-71
2022/10/16 10:41:05;;;;;;;14.95;2.10;;;15.60;99.90;;;;;;5069734;28;20387;-70
2022/10/16 10:43:46;;;;;;;17.92;2.10;;;15.60;99.90;;;;;;5067234;28;20509;-71
2022/10/16 10:46:34;;;;;;;14.70;2.22;;;15.70;99.90;;;;;;5058884;28;20049;-71
2022/10/16 10:49:17;;;;;;;10.95;2.10;;;15.70;99.90;;;;;;5046769;28;20386;-71
2022/10/16 10:52:01;;;;;;;11.38;1.67;;;15.70;99.90;;;;;;5049748;28;20122;-71
2022/10/16 10:54:55;;;;;;;14.60;2.13;;;15.60;99.90;;;;;;5057109;28;20493;-71
2022/10/16 10:57:52;;;;;;;12.00;2.00;;;15.60;99.90;;;;;;5060011;28;20040;-70
2022/10/16 11:00:42;;;;;;;14.18;2.17;;;15.50;99.90;;;;;;5060728;28;20036;-71
2022/10/16 11:03:42;;;;;;;15.63;3.38;;;15.50;99.90;;;;;;5050035;28;20108;-70
2022/10/16 11:06:13;;;;;;;13.82;2.38;;;15.50;99.90;;;;;;5049704;28;20444;-70
2022/10/16 11:09:11;;;;;;;12.85;2.35;;;15.50;99.90;;;;;;5060861;28;20048;-70
2022/10/16 11:11:37;;;;;;;13.48;2.50;;;15.50;99.90;;;;;;5054384;28;20049;-70
2022/10/16 11:14:14;;;;;;;19.33;2.58;;;15.50;99.90;;;;;;5044979;28;20043;-71
2022/10/16 11:16:53;;;;;;;15.15;2.40;;;15.60;99.90;;;;;;5063657;28;20119;-71
2022/10/16 11:19:19;;;;;;;14.90;2.72;;;15.60;99.90;;;;;;5065417;28;21267;-71
2022/10/16 11:22:16;;;;;;;14.45;2.20;;;15.60;99.90;;;;;;5053689;28;20052;-71
2022/10/16 11:25:12;;;;;;;17.67;2.67;;;15.70;99.90;;;;;;5059900;28;20527;-71
2022/10/16 11:27:47;;;;;;;11.07;1.80;;;15.70;99.90;;;;;;5065875;28;20135;-71
2022/10/16 11:30:39;;;;;;;11.68;2.15;;;15.70;99.90;;;;;;5058042;28;20056;-71
2022/10/16 11:33:17;;;;;;;12.85;2.47;;;15.70;99.90;;;;;;5062220;28;20051;-71
2022/10/16 11:35:48;;;;;;;12.70;2.00;;;15.70;99.90;;;;;;5051703;28;20045;-71
2022/10/16 11:38:54;;;;;;;16.15;2.28;;;15.80;99.90;;;;;;5058717;28;20491;-71
2022/10/16 11:41:28;;;;;;;14.23;2.30;;;15.80;99.90;;;;;;5032990;28;20823;-71
2022/10/16 11:43:57;;;;;;;16.77;2.35;;;15.80;99.90;;;;;;5050242;28;20067;-72
2022/10/16 11:46:24;;;;;;;13.90;2.88;;;15.80;99.90;;;;;;5050588;28;20048;-72
2022/10/16 11:49:03;;;;;;;13.43;2.22;;;15.90;99.90;;;;;;5051830;28;20048;-71
2022/10/16 11:51:44;;;;;;;14.15;2.20;;;15.90;99.90;;;;;;5051265;28;20757;-71
2022/10/16 11:54:35;;;;;;;16.73;2.30;;;16.10;99.90;;;;;;5033319;28;20087;-72
2022/10/16 11:57:09;;;;;;;13.60;2.78;;;16.10;99.90;;;;;;5062839;28;20049;-72
2022/10/16 11:59:51;;;;;;;12.10;1.92;;;16.10;99.90;;;;;;5049948;28;20197;-72
2022/10/16 12:02:50;;;;;;;13.18;2.08;;;16.10;99.90;;;;;;5057948;28;20049;-71
2022/10/16 12:06:07;;;;;;;16.30;2.15;;;16.10;99.90;;;;;;5060268;28;20052;-71
2022/10/16 12:08:34;;;;;;;13.00;1.90;;;16.10;99.90;;;;;;5034001;28;20463;-71
2022/10/16 12:11:23;;;;;;;15.77;2.08;;;16.10;99.90;;;;;;5061437;28;20048;-71
2022/10/16 12:13:50;;;;;;;14.38;1.95;;;16.10;99.90;;;;;;5030350;28;20578;-71
2022/10/16 12:16:15;;;;;;;16.50;2.90;;;16.20;99.90;;;;;;5048804;28;20159;-71
2022/10/16 12:18:44;;;;;;;14.52;2.60;;;16.20;99.90;;;;;;5040342;28;20118;-71
2022/10/16 12:21:13;;;;;;;17.15;2.20;;;16.20;99.90;;;;;;5052414;28;20409;-71
2022/10/16 12:23:51;;;;;;;16.23;2.70;;;16.30;99.90;;;;;;5052307;28;20570;-71
2022/10/16 12:26:44;;;;;;;14.10;2.55;;;16.30;99.90;;;;;;5050579;28;20052;-71
2022/10/16 12:29:33;;;;;;;16.02;2.85;;;16.30;99.90;;;;;;5048382;28;20048;-72
2022/10/16 12:32:00;;;;;;;13.50;2.00;;;16.30;99.90;;;;;;5038418;28;20902;-71
2022/10/16 12:34:41;;;;;;;18.20;2.95;;;16.20;99.90;;;;;;5053390;28;20045;-70
2022/10/16 12:37:18;;;;;;;18.05;2.70;;;16.20;99.90;;;;;;5059251;28;20412;-71
2022/10/16 12:39:45;;;;;;;15.13;2.53;;;16.20;99.90;;;;;;5052476;28;20044;-71
2022/10/16 12:42:26;;;;;;;18.10;2.47;;;16.10;99.90;;;;;;5057426;28;20051;-71
2022/10/16 12:44:52;;;;;;;19.10;2.53;;;16.10;99.90;;;;;;5042569;28;20119;-71
2022/10/16 12:47:46;;;;;;;17.50;2.72;;;16.10;99.90;;;;;;5047204;28;20063;-71
2022/10/16 12:50:42;;;;;;;14.35;2.33;;;16.00;99.90;;;;;;5052616;28;20060;-71
2022/10/16 12:53:25;;;;;;;14.45;2.40;;;16.10;99.90;;;;;;5053114;28;20057;-71
2022/10/16 12:56:16;;;;;;;15.80;2.20;;;16.10;99.90;;;;;;5045210;28;20745;-71
2022/10/16 12:58:42;;;;;;;11.95;2.00;;;16.20;99.90;;;;;;5061468;28;20701;-71
2022/10/16 13:01:22;;;;;;;15.10;2.35;;;16.10;99.90;;;;;;5055438;28;20052;-70
2022/10/16 13:04:06;;;;;;;12.93;2.08;;;16.10;99.90;;;;;;5057184;28;20043;-71
2022/10/16 13:06:51;;;;;;;12.98;2.10;;;16.00;99.90;;;;;;5056760;28;20040;-71